createdAt,value
2022-08-11T00:02:38.372Z,15.07
2022-08-11T00:05:09.504Z,15.03
2022-08-11T00:07:52.655Z,15.02
2022-08-11T00:10:29.853Z,14.98
2022-08-11T00:13:03.774Z,14.95
2022-08-11T00:15:44.242Z,14.91
2022-08-11T00:18:13.642Z,14.86
2022-08-11T00:20:44.071Z,14.84
2022-08-11T00:23:19.842Z,14.81
2022-08-11T00:25:52.071Z,14.79
2022-08-11T00:28:34.423Z,14.75
2022-08-11T00:31:08.044Z,14.70
2022-08-11T00:33:44.518Z,14.66
2022-08-11T00:36:19.787Z,14.63
2022-08-11T00:38:52.657Z,14.60
2022-08-11T00:41:36.420Z,14.56
2022-08-11T00:44:04.037Z,14.51
2022-08-11T00:46:55.857Z,14.48
2022-08-11T00:49:43.211Z,14.45
2022-08-11T00:52:28.921Z,14.41
2022-08-11T00:55:18.311Z,14.38
2022-08-11T00:58:23.401Z,14.35
2022-08-11T01:01:18.522Z,14.32
2022-08-11T01:04:01.417Z,14.28
2022-08-11T01:06:50.319Z,14.24
2022-08-11T01:09:52.153Z,14.21
2022-08-11T01:12:40.736Z,14.18
2022-08-11T01:15:37.521Z,14.15
2022-08-11T01:18:44.083Z,14.11
2022-08-11T01:21:40.310Z,14.10
2022-08-11T01:24:38.640Z,14.06
2022-08-11T01:27:49.305Z,14.05
2022-08-11T01:30:48.852Z,14.01
2022-08-11T01:33:55.766Z,13.97
2022-08-11T01:37:00.769Z,13.92
2022-08-11T01:40:09.340Z,13.88
2022-08-11T01:43:35.872Z,13.84
2022-08-11T01:46:23.632Z,13.84
2022-08-11T01:50:02.882Z,13.85
2022-08-11T01:52:03.162Z,13.87
2022-08-11T01:54:49.505Z,13.87
2022-08-11T01:57:35.444Z,13.86
2022-08-11T02:00:12.413Z,13.84
2022-08-11T02:02:58.573Z,13.81
2022-08-11T02:05:56.339Z,13.79
2022-08-11T02:08:44.182Z,13.77
2022-08-11T02:11:35.346Z,13.75
2022-08-11T02:14:10.841Z,13.70
2022-08-11T02:17:11.878Z,13.66
2022-08-11T02:20:13.850Z,13.62
2022-08-11T02:23:12.469Z,13.60
2022-08-11T02:25:58.863Z,13.56
2022-08-11T02:28:46.648Z,13.54
2022-08-11T02:32:15.768Z,13.53
2022-08-11T02:35:00.781Z,13.51
2022-08-11T02:37:34.561Z,13.47
2022-08-11T02:40:17.696Z,13.41
2022-08-11T02:42:45.633Z,13.37
2022-08-11T02:45:40.076Z,13.33
2022-08-11T02:48:43.859Z,13.27
2022-08-11T02:51:35.686Z,13.24
2022-08-11T02:54:21.429Z,13.23
2022-08-11T02:57:04.521Z,13.23
2022-08-11T02:59:51.065Z,13.18
2022-08-11T03:02:46.806Z,13.15
2022-08-11T03:05:41.887Z,13.14
2022-08-11T03:08:30.126Z,13.13
2022-08-11T03:11:26.114Z,13.12
2022-08-11T03:14:28.299Z,13.14
2022-08-11T03:17:12.931Z,13.13
2022-08-11T03:19:53.771Z,13.13
2022-08-11T03:22:38.910Z,13.12
2022-08-11T03:25:16.106Z,13.13
2022-08-11T03:27:54.074Z,13.13
2022-08-11T03:30:28.232Z,13.13
2022-08-11T03:33:37.794Z,13.14
2022-08-11T03:36:54.557Z,13.14
2022-08-11T03:39:56.127Z,13.16
2022-08-11T03:42:47.491Z,13.17
2022-08-11T03:45:57.429Z,13.17
2022-08-11T03:48:58.944Z,13.17
2022-08-11T03:51:51.525Z,13.17
2022-08-11T03:54:43.234Z,13.17
2022-08-11T03:57:44.305Z,13.18
2022-08-11T04:00:50.325Z,13.17
2022-08-11T04:03:36.401Z,13.17
2022-08-11T04:06:45.899Z,13.20
2022-08-11T04:09:47.552Z,13.25
2022-08-11T04:12:47.551Z,13.29
2022-08-11T04:15:57.395Z,13.34
2022-08-11T04:19:07.747Z,13.38
2022-08-11T04:21:35.442Z,13.43
2022-08-11T04:24:33.228Z,13.46
2022-08-11T04:27:36.925Z,13.50
2022-08-11T04:30:22.880Z,13.56
2022-08-11T04:33:36.482Z,13.61
2022-08-11T04:36:52.808Z,13.69
2022-08-11T04:39:57.392Z,13.77
2022-08-11T04:43:18.686Z,13.87
2022-08-11T04:46:06.442Z,13.95
2022-08-11T04:49:25.814Z,14.02
2022-08-11T04:52:41.653Z,14.10
2022-08-11T04:55:58.894Z,14.18
2022-08-11T04:59:03.523Z,14.26
2022-08-11T05:01:55.579Z,14.32
2022-08-11T05:04:59.983Z,14.37
2022-08-11T05:07:46.027Z,14.43
2022-08-11T05:10:25.850Z,14.48
2022-08-11T05:12:55.308Z,14.54
2022-08-11T05:16:01.334Z,14.60
2022-08-11T05:18:48.724Z,14.68
2022-08-11T05:21:44.989Z,14.77
2022-08-11T05:25:14.980Z,14.88
2022-08-11T05:28:30.075Z,15.05
2022-08-11T05:31:21.756Z,15.15
2022-08-11T05:34:11.156Z,15.26
2022-08-11T05:36:50.628Z,15.37
2022-08-11T05:39:44.634Z,15.47
2022-08-11T05:42:31.692Z,15.60
2022-08-11T05:45:23.038Z,15.71
2022-08-11T05:48:10.324Z,15.78
2022-08-11T05:50:58.619Z,15.86
2022-08-11T05:53:46.259Z,15.92
2022-08-11T05:56:21.044Z,15.99
2022-08-11T05:58:53.634Z,16.08
2022-08-11T06:01:23.481Z,16.18
2022-08-11T06:04:13.623Z,16.30
2022-08-11T06:06:57.966Z,16.44
2022-08-11T06:09:34.934Z,16.54
2022-08-11T06:12:15.985Z,16.62
2022-08-11T06:14:46.236Z,16.67
2022-08-11T06:17:14.682Z,16.74
2022-08-11T06:19:47.710Z,16.81
2022-08-11T06:22:21.825Z,16.92
2022-08-11T06:25:01.590Z,17.07
2022-08-11T06:27:35.497Z,17.24
2022-08-11T06:30:15.563Z,17.39
2022-08-11T06:32:51.495Z,17.52
2022-08-11T06:35:46.279Z,17.65
2022-08-11T06:38:32.257Z,17.83
2022-08-11T06:41:26.443Z,18.06
2022-08-11T06:44:07.655Z,18.34
2022-08-11T06:46:41.791Z,18.59
2022-08-11T06:49:30.697Z,18.80
2022-08-11T06:52:34.777Z,19.02
2022-08-11T06:55:07.639Z,19.24
2022-08-11T06:57:58.186Z,19.44
2022-08-11T07:00:29.666Z,19.66
2022-08-11T07:03:11.805Z,19.88
2022-08-11T07:06:06.563Z,20.16
2022-08-11T07:09:06.065Z,20.47
2022-08-11T07:12:08.852Z,20.79
2022-08-11T07:15:00.922Z,21.24
2022-08-11T07:17:32.012Z,22.62
2022-08-11T07:20:21.679Z,24.48
2022-08-11T07:23:13.720Z,25.84
2022-08-11T07:26:02.168Z,27.48
2022-08-11T07:28:52.661Z,29.34
2022-08-11T07:31:29.386Z,30.06
2022-08-11T07:34:19.379Z,30.47
2022-08-11T07:36:53.700Z,30.96
2022-08-11T07:39:27.445Z,31.11
2022-08-11T07:41:58.520Z,31.27
2022-08-11T07:44:35.087Z,31.35
2022-08-11T07:47:22.092Z,31.43
2022-08-11T07:50:12.834Z,31.93
2022-08-11T07:52:40.958Z,33.08
2022-08-11T07:55:14.673Z,33.13
2022-08-11T07:58:16.164Z,32.69
2022-08-11T08:01:22.335Z,32.09
2022-08-11T08:04:10.332Z,31.53
2022-08-11T08:06:57.679Z,31.24
2022-08-11T08:09:44.541Z,31.29
2022-08-11T08:12:31.975Z,31.31
2022-08-11T08:15:20.249Z,31.09
2022-08-11T08:18:09.476Z,30.96
2022-08-11T08:20:50.674Z,31.19
2022-08-11T08:23:34.354Z,31.83
2022-08-11T08:26:26.252Z,32.82
2022-08-11T08:29:16.581Z,33.43
2022-08-11T08:31:48.531Z,34.26
2022-08-11T08:34:17.731Z,35.14
2022-08-11T08:36:49.423Z,35.42
2022-08-11T08:39:22.033Z,35.68
2022-08-11T08:41:54.868Z,36.01
2022-08-11T08:44:41.534Z,36.46
2022-08-11T08:47:43.069Z,35.53
2022-08-11T08:50:16.634Z,34.18
2022-08-11T08:53:12.023Z,33.75
2022-08-11T08:55:45.322Z,35.53
2022-08-11T08:58:15.951Z,37.26
2022-08-11T09:00:46.854Z,38.41
2022-08-11T09:03:39.902Z,37.73
2022-08-11T09:06:03.110Z,36.16
2022-08-11T09:08:33.864Z,34.96
2022-08-11T09:11:22.788Z,34.37
2022-08-11T09:14:04.874Z,35.51
2022-08-11T09:16:39.263Z,37.13
2022-08-11T09:19:08.273Z,37.41
2022-08-11T09:21:48.150Z,36.30
2022-08-11T09:24:38.384Z,36.14
2022-08-11T09:27:08.490Z,36.50
2022-08-11T09:29:38.769Z,37.65
2022-08-11T09:32:08.487Z,39.07
2022-08-11T09:34:37.497Z,39.66
2022-08-11T09:37:55.803Z,38.50
2022-08-11T09:42:23.616Z,36.69
2022-08-11T09:43:39.194Z,35.29
2022-08-11T09:46:08.950Z,34.39
2022-08-11T09:48:40.568Z,33.55
2022-08-11T09:51:10.080Z,32.73
2022-08-11T09:54:02.673Z,31.95
2022-08-11T09:56:50.639Z,31.06
2022-08-11T09:59:22.014Z,30.27
2022-08-11T10:01:57.086Z,29.68
2022-08-11T10:04:32.881Z,29.21
2022-08-11T10:07:04.461Z,28.79
2022-08-11T10:09:38.389Z,28.40
2022-08-11T10:12:10.980Z,27.98
2022-08-11T10:15:00.713Z,27.58
2022-08-11T10:17:33.154Z,27.14
2022-08-11T10:20:05.900Z,26.75
2022-08-11T10:22:54.247Z,26.48
2022-08-11T10:25:41.227Z,26.22
2022-08-11T10:28:28.583Z,25.95
2022-08-11T10:31:17.283Z,25.70
2022-08-11T10:34:03.570Z,25.55
2022-08-11T10:36:34.218Z,25.41
2022-08-11T10:39:06.302Z,25.29
2022-08-11T10:42:06.837Z,25.16
2022-08-11T10:44:44.646Z,24.93
2022-08-11T10:47:34.061Z,24.77
2022-08-11T10:50:22.556Z,24.66
2022-08-11T10:53:09.333Z,24.61
2022-08-11T10:55:58.633Z,24.64
2022-08-11T10:58:45.945Z,24.71
2022-08-11T11:01:15.870Z,24.71
2022-08-11T11:03:44.595Z,24.73
2022-08-11T11:06:29.433Z,24.75
2022-08-11T11:09:14.887Z,24.80
2022-08-11T11:12:11.522Z,24.83
2022-08-11T11:15:01.018Z,24.89
2022-08-11T11:18:04.921Z,24.89
2022-08-11T11:20:47.171Z,24.90
2022-08-11T11:23:32.843Z,24.91
2022-08-11T11:26:14.503Z,24.89
2022-08-11T11:29:03.240Z,24.86
2022-08-11T11:31:38.807Z,24.82
2022-08-11T11:34:20.120Z,24.75
2022-08-11T11:36:51.758Z,24.73
2022-08-11T11:39:25.577Z,24.76
2022-08-11T11:42:03.349Z,24.83
2022-08-11T11:44:32.725Z,24.92
2022-08-11T11:47:01.484Z,24.98
2022-08-11T11:49:32.475Z,25.06
2022-08-11T11:52:01.259Z,25.12
2022-08-11T11:54:31.893Z,25.11
2022-08-11T11:57:21.727Z,25.05
2022-08-11T12:00:10.637Z,24.96
2022-08-11T12:02:40.765Z,24.90
2022-08-11T12:05:10.354Z,24.89
2022-08-11T12:08:10.426Z,24.92
2022-08-11T12:10:47.750Z,24.98
2022-08-11T12:13:37.586Z,25.06
2022-08-11T12:16:32.825Z,25.19
2022-08-11T12:18:57.093Z,25.33
2022-08-11T12:21:26.439Z,25.49
2022-08-11T12:24:15.505Z,25.59
2022-08-11T12:27:15.051Z,25.58
2022-08-11T12:29:41.145Z,25.46
2022-08-11T12:32:12.328Z,25.30
2022-08-11T12:34:40.402Z,25.17
2022-08-11T12:37:13.719Z,25.06
2022-08-11T12:40:16.553Z,24.96
2022-08-11T12:43:36.930Z,24.87
2022-08-11T12:46:10.643Z,24.80
2022-08-11T12:49:04.239Z,24.72
2022-08-11T12:52:01.432Z,24.54
2022-08-11T12:54:51.926Z,24.39
2022-08-11T12:58:04.347Z,24.27
2022-08-11T13:00:51.844Z,24.19
2022-08-11T13:03:39.815Z,24.18
2022-08-11T13:06:08.020Z,24.24
2022-08-11T13:08:39.522Z,24.27
2022-08-11T13:11:56.199Z,24.32
2022-08-11T13:14:17.122Z,24.35
2022-08-11T13:17:05.379Z,24.35
2022-08-11T13:19:34.633Z,24.37
2022-08-11T13:22:07.484Z,24.39
2022-08-11T13:24:36.628Z,24.44
2022-08-11T13:27:05.075Z,24.49
2022-08-11T13:29:33.323Z,24.50
2022-08-11T13:32:01.153Z,24.51
2022-08-11T13:34:31.415Z,24.56
2022-08-11T13:37:02.171Z,24.64
2022-08-11T13:39:32.418Z,24.70
2022-08-11T13:42:02.597Z,24.73
2022-08-11T13:44:33.472Z,24.78
2022-08-11T13:47:04.469Z,24.85
2022-08-11T13:49:35.918Z,24.85
2022-08-11T13:52:06.693Z,24.79
2022-08-11T13:54:38.565Z,24.75
2022-08-11T13:57:13.649Z,24.70
2022-08-11T14:00:09.701Z,24.64
2022-08-11T14:02:43.698Z,23.81
2022-08-11T14:05:18.136Z,22.26
2022-08-11T14:07:52.352Z,21.21
2022-08-11T14:10:25.437Z,20.60
2022-08-11T14:13:18.634Z,20.30
2022-08-11T14:15:49.547Z,20.11
2022-08-11T14:18:20.474Z,19.97
2022-08-11T14:21:13.841Z,19.86
2022-08-11T14:23:45.823Z,19.78
2022-08-11T14:26:29.614Z,19.73
2022-08-11T14:29:11.106Z,19.69
2022-08-11T14:31:45.693Z,19.66
2022-08-11T14:34:14.739Z,19.59
2022-08-11T14:36:47.315Z,19.49
2022-08-11T14:39:18.239Z,19.32
2022-08-11T14:42:13.397Z,19.16
2022-08-11T14:45:24.230Z,19.00
2022-08-11T14:47:54.856Z,18.89
2022-08-11T14:50:26.004Z,18.82
2022-08-11T14:52:58.332Z,18.74
2022-08-11T14:55:47.623Z,18.67
2022-08-11T14:58:18.502Z,18.59
2022-08-11T15:00:47.481Z,18.54
2022-08-11T15:03:15.849Z,18.48
2022-08-11T15:05:58.329Z,18.44
2022-08-11T15:08:48.754Z,18.41
2022-08-11T15:11:37.537Z,18.38
2022-08-11T15:14:08.007Z,18.37
2022-08-11T15:17:00.733Z,18.36
2022-08-11T15:19:40.182Z,18.36
2022-08-11T15:22:29.379Z,18.35
2022-08-11T15:25:02.758Z,18.35
2022-08-11T15:27:50.235Z,18.35
2022-08-11T15:30:36.716Z,18.35
2022-08-11T15:33:25.791Z,18.35
2022-08-11T15:36:14.127Z,18.39
2022-08-11T15:38:47.719Z,18.41
2022-08-11T15:41:37.000Z,18.42
2022-08-11T15:44:51.371Z,18.44
2022-08-11T15:47:20.455Z,18.47
2022-08-11T15:50:10.861Z,18.47
2022-08-11T15:52:48.451Z,18.46
2022-08-11T15:55:17.008Z,18.46
2022-08-11T15:58:07.315Z,18.45
2022-08-11T16:00:58.929Z,18.44
2022-08-11T16:04:08.222Z,18.43
2022-08-11T16:06:47.146Z,18.44
2022-08-11T16:09:33.815Z,18.44
2022-08-11T16:12:23.167Z,18.42
2022-08-11T16:15:20.873Z,18.39
2022-08-11T16:17:52.155Z,18.33
2022-08-11T16:20:23.424Z,18.29
2022-08-11T16:23:00.507Z,18.24
2022-08-11T16:27:05.988Z,18.19
2022-08-11T16:28:27.021Z,18.09
2022-08-11T16:30:56.639Z,18.03
2022-08-11T16:33:48.623Z,17.95
2022-08-11T16:36:34.763Z,17.89
2022-08-11T16:39:04.246Z,17.83
2022-08-11T16:41:53.286Z,17.77
2022-08-11T16:44:41.076Z,17.73
2022-08-11T16:47:14.147Z,17.67
2022-08-11T16:49:52.784Z,17.62
2022-08-11T16:52:23.735Z,17.59
2022-08-11T16:54:52.883Z,17.57
2022-08-11T16:57:44.691Z,17.55
2022-08-11T17:00:17.916Z,17.53
2022-08-11T17:03:06.801Z,17.49
2022-08-11T17:05:55.436Z,17.47
2022-08-11T17:08:57.577Z,17.43
2022-08-11T17:11:47.518Z,17.39
2022-08-11T17:14:35.785Z,17.36
2022-08-11T17:17:13.510Z,17.34
2022-08-11T17:20:38.535Z,17.30
2022-08-11T17:23:01.462Z,17.28
2022-08-11T17:25:32.385Z,17.26
2022-08-11T17:28:24.557Z,17.24
2022-08-11T17:31:21.724Z,17.24
2022-08-11T17:34:11.969Z,17.24
2022-08-11T17:36:45.502Z,17.21
2022-08-11T17:39:15.267Z,17.19
2022-08-11T17:42:03.545Z,17.18
2022-08-11T17:44:51.905Z,17.18
2022-08-11T17:47:38.860Z,17.16
2022-08-11T17:50:16.700Z,17.14
2022-08-11T17:53:06.306Z,17.13
2022-08-11T17:55:54.836Z,17.12
2022-08-11T17:58:43.332Z,17.12
2022-08-11T18:01:12.518Z,17.10
2022-08-11T18:03:41.865Z,17.08
2022-08-11T18:06:21.791Z,17.06
2022-08-11T18:09:24.417Z,17.03
2022-08-11T18:12:13.140Z,17.01
2022-08-11T18:15:04.876Z,16.99
2022-08-11T18:17:52.619Z,16.96
2022-08-11T18:20:39.582Z,16.93
2022-08-11T18:23:41.680Z,16.90
2022-08-11T18:26:39.197Z,16.88
2022-08-11T18:29:26.724Z,16.85
2022-08-11T18:32:21.211Z,16.82
2022-08-11T18:35:13.300Z,16.80
2022-08-11T18:38:04.850Z,16.77
2022-08-11T18:40:54.133Z,16.76
2022-08-11T18:43:43.058Z,16.75
2022-08-11T18:46:32.770Z,16.73
2022-08-11T18:49:34.260Z,16.72
2022-08-11T18:52:36.770Z,16.68
2022-08-11T18:55:28.197Z,16.65
2022-08-11T18:58:16.501Z,16.61
2022-08-11T19:01:04.892Z,16.59
2022-08-11T19:03:54.258Z,16.54
2022-08-11T19:06:42.742Z,16.51
2022-08-11T19:09:33.358Z,16.48
2022-08-11T19:12:20.642Z,16.44
2022-08-11T19:15:09.183Z,16.42
2022-08-11T19:18:00.255Z,16.41
2022-08-11T19:20:49.639Z,16.37
2022-08-11T19:23:43.544Z,16.34
2022-08-11T19:26:31.102Z,16.31
2022-08-11T19:30:04.857Z,16.29
2022-08-11T19:32:30.580Z,16.26
2022-08-11T19:35:19.724Z,16.22
2022-08-11T19:38:08.349Z,16.18
2022-08-11T19:40:57.780Z,16.14
2022-08-11T19:43:49.281Z,16.11
2022-08-11T19:46:41.531Z,16.08
2022-08-11T19:49:30.105Z,16.05
2022-08-11T19:52:19.149Z,16.03
2022-08-11T19:55:08.061Z,16.00
2022-08-11T19:57:57.619Z,15.97
2022-08-11T20:00:44.984Z,15.95
2022-08-11T20:03:32.552Z,15.93
2022-08-11T20:06:23.485Z,15.92
2022-08-11T20:09:19.484Z,15.91
2022-08-11T20:12:12.283Z,15.91
2022-08-11T20:15:00.767Z,15.90
2022-08-11T20:17:53.561Z,15.87
2022-08-11T20:20:43.893Z,15.86
2022-08-11T20:23:33.465Z,15.83
2022-08-11T20:26:30.789Z,15.82
2022-08-11T20:29:18.973Z,15.79
2022-08-11T20:32:09.280Z,15.79
2022-08-11T20:34:58.290Z,15.77
2022-08-11T20:37:50.385Z,15.74
2022-08-11T20:40:42.585Z,15.71
2022-08-11T20:44:06.180Z,15.69
2022-08-11T20:46:44.047Z,15.66
2022-08-11T20:49:42.314Z,15.65
2022-08-11T20:52:37.730Z,15.64
2022-08-11T20:55:46.253Z,15.61
2022-08-11T20:59:04.046Z,15.60
2022-08-11T21:01:44.478Z,15.59
2022-08-11T21:04:31.272Z,15.58
2022-08-11T21:07:28.749Z,15.57
2022-08-11T21:10:24.024Z,15.54
2022-08-11T21:13:25.187Z,15.52
2022-08-11T21:16:25.345Z,15.51
2022-08-11T21:20:00.719Z,15.48
2022-08-11T21:22:33.446Z,15.44
2022-08-11T21:25:20.729Z,15.42
2022-08-11T21:28:09.187Z,15.39
2022-08-11T21:30:58.006Z,15.38
2022-08-11T21:33:49.931Z,15.37
2022-08-11T21:36:37.770Z,15.36
2022-08-11T21:39:26.636Z,15.35
2022-08-11T21:42:13.927Z,15.34
2022-08-11T21:45:01.944Z,15.33
2022-08-11T21:48:00.712Z,15.31
2022-08-11T21:50:48.346Z,15.28
2022-08-11T21:53:35.883Z,15.27
2022-08-11T21:56:25.563Z,15.24
2022-08-11T21:59:16.100Z,15.24
2022-08-11T22:02:06.160Z,15.21
2022-08-11T22:04:55.420Z,15.17
2022-08-11T22:07:42.741Z,15.14
2022-08-11T22:10:40.632Z,15.10
2022-08-11T22:13:30.881Z,15.08
2022-08-11T22:16:19.298Z,15.07
2022-08-11T22:19:09.615Z,15.06
2022-08-11T22:22:03.372Z,15.03
2022-08-11T22:24:53.434Z,15.02
2022-08-11T22:27:40.367Z,14.98
2022-08-11T22:30:29.208Z,14.96
2022-08-11T22:33:25.639Z,14.96
2022-08-11T22:36:16.551Z,14.94
2022-08-11T22:39:04.075Z,14.93
2022-08-11T22:41:50.834Z,14.91
2022-08-11T22:44:37.146Z,14.89
2022-08-11T22:47:23.833Z,14.88
2022-08-11T22:50:16.468Z,14.87
2022-08-11T22:53:05.266Z,14.83
2022-08-11T22:55:52.237Z,14.80
2022-08-11T22:58:40.321Z,14.78
2022-08-11T23:01:27.611Z,14.75
2022-08-11T23:04:15.102Z,14.72
2022-08-11T23:07:02.080Z,14.69
2022-08-11T23:09:49.342Z,14.67
2022-08-11T23:12:37.178Z,14.63
2022-08-11T23:15:24.670Z,14.60
2022-08-11T23:18:11.439Z,14.58
2022-08-11T23:20:58.989Z,14.56
2022-08-11T23:23:47.478Z,14.56
2022-08-11T23:26:37.422Z,14.53
2022-08-11T23:29:26.181Z,14.50
2022-08-11T23:32:13.664Z,14.50
2022-08-11T23:35:38.916Z,14.48
2022-08-11T23:38:11.245Z,14.46
2022-08-11T23:40:57.629Z,14.45
2022-08-11T23:43:44.009Z,14.43
2022-08-11T23:46:30.247Z,14.41
2022-08-11T23:49:21.491Z,14.39
2022-08-11T23:52:08.572Z,14.38
2022-08-11T23:54:56.380Z,14.37
2022-08-11T23:57:49.018Z,14.35
